Time;durP1;ratioP1;P1;durP2;ratioP2;P2;SDS_P1;SDS_P2;PMS_P1;PMS_P2;Temp;Humidity;BMP_temperature;BMP_pressure;BME280_temperature;BME280_humidity;BME280_pressure;Samples;Min_cycle;Max_cycle;Signal;HPM_P1;HPM_P2
2022/09/11 00:00:31;;;;;;;1.50;0.93;;;17.00;98.20;;;;;;5007026;28;20483;-79
2022/09/11 00:02:59;;;;;;;1.50;1.00;;;17.00;98.20;;;;;;4985719;28;20532;-79
2022/09/11 00:05:28;;;;;;;1.50;0.90;;;17.00;98.20;;;;;;5013523;28;20468;-79
2022/09/11 00:07:55;;;;;;;1.50;1.00;;;16.90;98.20;;;;;;5002518;28;20899;-77
2022/09/11 00:10:23;;;;;;;1.50;1.00;;;16.90;98.20;;;;;;5013213;28;20494;-79
2022/09/11 00:12:50;;;;;;;1.50;1.00;;;16.90;98.20;;;;;;4993292;28;20528;-79
2022/09/11 00:15:17;;;;;;;1.57;1.00;;;16.90;98.20;;;;;;5006172;28;20880;-81
2022/09/11 00:17:45;;;;;;;1.50;1.00;;;16.90;98.20;;;;;;4985879;28;20508;-79
2022/09/11 00:20:12;;;;;;;1.50;0.90;;;16.90;98.20;;;;;;5006720;28;20503;-80
2022/09/11 00:22:40;;;;;;;1.60;1.00;;;16.80;98.20;;;;;;5001548;28;20996;-79
2022/09/11 00:25:08;;;;;;;1.50;1.00;;;16.80;98.20;;;;;;5005847;28;20496;-78
2022/09/11 00:27:36;;;;;;;1.53;1.00;;;16.80;98.20;;;;;;5001986;28;20488;-79
2022/09/11 00:30:05;;;;;;;1.53;1.00;;;16.80;98.20;;;;;;5012232;28;20504;-79
2022/09/11 00:32:33;;;;;;;1.53;1.00;;;16.70;98.20;;;;;;5001561;28;20512;-79
2022/09/11 00:35:00;;;;;;;1.53;0.90;;;16.70;98.20;;;;;;5005944;28;20547;-78
2022/09/11 00:37:27;;;;;;;1.60;1.10;;;16.70;98.20;;;;;;5001534;28;20925;-79
2022/09/11 00:39:55;;;;;;;1.57;0.97;;;16.60;98.20;;;;;;5008068;28;20528;-79
2022/09/11 00:42:24;;;;;;;1.53;1.00;;;16.70;98.20;;;;;;4997391;28;20486;-79
2022/09/11 00:45:01;;;;;;;1.53;1.00;;;16.60;98.20;;;;;;5009512;28;20464;-79
2022/09/11 00:47:31;;;;;;;1.50;1.00;;;16.60;98.20;;;;;;5007642;28;20491;-79
2022/09/11 00:50:10;;;;;;;1.53;1.00;;;16.60;98.20;;;;;;5013266;28;20557;-78
2022/09/11 00:52:41;;;;;;;1.53;1.00;;;16.60;98.20;;;;;;4989532;28;20632;-79
2022/09/11 00:55:14;;;;;;;1.57;1.00;;;16.60;98.20;;;;;;5011689;28;20833;-80
2022/09/11 00:58:11;;;;;;;1.53;1.00;;;16.60;98.20;;;;;;5006441;28;20476;-79
2022/09/11 01:00:40;;;;;;;1.53;1.00;;;16.50;98.20;;;;;;5001409;28;20484;-80
2022/09/11 01:03:11;;;;;;;1.57;1.00;;;16.50;98.20;;;;;;5001157;28;20543;-79
2022/09/11 01:05:42;;;;;;;1.50;1.00;;;16.50;98.20;;;;;;5004833;28;20468;-80
2022/09/11 01:08:09;;;;;;;1.57;0.90;;;16.50;98.20;;;;;;5004616;28;20491;-79
2022/09/11 01:10:47;;;;;;;1.53;1.00;;;16.50;98.20;;;;;;5011772;28;20488;-79
2022/09/11 01:13:26;;;;;;;1.50;1.00;;;16.50;98.20;;;;;;4982502;28;20559;-78
2022/09/11 01:16:05;;;;;;;1.53;1.00;;;16.50;98.20;;;;;;4996269;28;20579;-79
2022/09/11 01:18:36;;;;;;;1.50;0.90;;;16.50;98.20;;;;;;5008049;28;20456;-80
2022/09/11 01:21:33;;;;;;;1.50;0.90;;;16.40;98.20;;;;;;4991886;28;20819;-79
2022/09/11 01:24:13;;;;;;;1.53;1.00;;;16.40;98.20;;;;;;5002804;28;20508;-78
2022/09/11 01:27:05;;;;;;;1.53;1.00;;;16.40;98.20;;;;;;4995116;28;20477;-79
2022/09/11 01:29:39;;;;;;;1.57;1.00;;;16.40;98.20;;;;;;5007006;28;20491;-79
2022/09/11 01:32:16;;;;;;;1.57;1.00;;;16.40;98.20;;;;;;4995731;28;20484;-79
2022/09/11 01:34:52;;;;;;;1.50;1.00;;;16.40;98.20;;;;;;5012150;28;20471;-79
2022/09/11 01:37:39;;;;;;;1.53;0.90;;;16.40;98.20;;;;;;5004909;28;20511;-79
2022/09/11 01:40:22;;;;;;;1.57;0.90;;;16.40;98.20;;;;;;5012804;28;20484;-79
2022/09/11 01:42:51;;;;;;;1.50;1.00;;;16.40;98.20;;;;;;4984680;28;20993;-80
2022/09/11 01:45:24;;;;;;;1.50;0.90;;;16.50;98.20;;;;;;5005376;28;20472;-79
2022/09/11 01:47:54;;;;;;;1.50;1.00;;;16.50;98.20;;;;;;4997637;28;20551;-80
2022/09/11 01:50:24;;;;;;;1.53;1.00;;;16.50;98.20;;;;;;5012472;28;20924;-80
2022/09/11 01:52:57;;;;;;;1.57;1.00;;;16.50;98.20;;;;;;5007845;28;20480;-79
2022/09/11 01:55:29;;;;;;;1.53;1.00;;;16.60;98.20;;;;;;5012899;28;20563;-79
2022/09/11 01:58:01;;;;;;;1.57;0.93;;;16.60;98.20;;;;;;5001144;28;20516;-79
2022/09/11 02:00:36;;;;;;;1.53;0.90;;;16.60;98.20;;;;;;5011980;28;20492;-79
2022/09/11 02:03:08;;;;;;;1.50;1.00;;;16.60;98.20;;;;;;4999913;28;20796;-79
2022/09/11 02:05:42;;;;;;;1.53;1.00;;;16.60;98.20;;;;;;5010453;28;20488;-79
2022/09/11 02:08:24;;;;;;;1.60;1.10;;;16.60;98.20;;;;;;5007001;28;20480;-79
2022/09/11 02:10:55;;;;;;;1.50;1.00;;;16.60;98.20;;;;;;5001246;28;20504;-79
2022/09/11 02:13:28;;;;;;;1.50;0.90;;;16.60;98.20;;;;;;4998789;28;20469;-79
2022/09/11 02:16:02;;;;;;;1.57;0.90;;;16.70;98.20;;;;;;5005253;28;20459;-79
2022/09/11 02:18:38;;;;;;;1.53;1.00;;;16.70;98.20;;;;;;5011265;28;20472;-79
2022/09/11 02:21:05;;;;;;;1.53;1.00;;;16.70;98.20;;;;;;5006720;28;20838;-79
2022/09/11 02:23:33;;;;;;;1.53;1.00;;;16.70;98.20;;;;;;5002394;28;20582;-79
2022/09/11 02:26:04;;;;;;;1.57;1.00;;;16.70;98.20;;;;;;5004881;28;20467;-79
2022/09/11 02:28:32;;;;;;;1.57;1.00;;;16.80;98.20;;;;;;5014734;28;20534;-79
2022/09/11 02:34:09;;;;;;;1.57;0.90;;;16.80;98.20;;;;;;5013916;28;20480;-78
2022/09/11 02:36:56;;;;;;;1.57;1.00;;;16.70;98.20;;;;;;5004548;28;20510;-79
2022/09/11 02:39:34;;;;;;;1.50;1.00;;;16.80;98.20;;;;;;5013985;28;20515;-78
2022/09/11 02:42:26;;;;;;;1.53;1.00;;;16.70;98.20;;;;;;4982640;28;20583;-78
2022/09/11 02:45:01;;;;;;;1.60;1.03;;;16.70;98.20;;;;;;4995534;28;20774;-79
2022/09/11 02:47:42;;;;;;;1.53;0.90;;;16.70;98.20;;;;;;4989410;28;20483;-78
2022/09/11 02:50:21;;;;;;;1.50;0.90;;;16.70;98.20;;;;;;4995486;28;21031;-79
2022/09/11 02:52:56;;;;;;;1.57;0.90;;;16.70;98.20;;;;;;4981833;28;20553;-78
2022/09/11 02:55:31;;;;;;;1.57;1.00;;;16.70;98.20;;;;;;4993660;28;20513;-79
2022/09/11 02:58:03;;;;;;;1.60;1.00;;;16.70;98.20;;;;;;4983055;28;20540;-78
2022/09/11 03:24:18;;;;;;;1.57;1.00;;;16.80;98.20;;;;;;5108499;23;20485;-77
2022/09/11 03:30:15;;;;;;;1.50;1.00;;;16.80;98.20;;;;;;4951294;28;20533;-78
2022/09/11 03:39:28;;;;;;;1.53;1.00;;;16.90;98.20;;;;;;4848865;29;20471;-79
2022/09/11 03:45:20;;;;;;;1.53;0.97;;;16.80;98.20;;;;;;4900424;29;20518;-78
2022/09/11 03:47:47;;;;;;;1.57;1.00;;;16.80;98.20;;;;;;4955406;28;20513;-78
2022/09/11 03:50:21;;;;;;;1.57;1.00;;;16.80;98.20;;;;;;4961971;28;20505;-78
2022/09/11 03:53:58;;;;;;;;;;;;;;;;;;;;;
2022/09/11 03:56:54;;;;;;;1.53;1.00;;;16.80;98.20;;;;;;4939447;28;20496;-78
2022/09/11 03:59:34;;;;;;;1.57;1.00;;;16.80;98.20;;;;;;4902795;29;20688;-79
2022/09/11 04:08:32;;;;;;;1.60;1.00;;;16.80;98.20;;;;;;4887225;29;20478;-79
2022/09/11 04:11:03;;;;;;;1.50;1.00;;;16.80;98.20;;;;;;4944629;28;20475;-77
2022/09/11 04:13:34;;;;;;;1.57;0.93;;;16.70;98.20;;;;;;4959857;28;20493;-78
2022/09/11 04:16:03;;;;;;;1.50;0.97;;;16.80;98.20;;;;;;4947247;28;20519;-78
2022/09/11 04:18:31;;;;;;;1.63;1.17;;;16.80;98.20;;;;;;4959860;28;20467;-77
2022/09/11 04:21:48;;;;;;;;;;;;;;;;;;;;;
2022/09/11 04:31:21;;;;;;;1.50;0.90;;;16.70;98.20;;;;;;4889869;29;20468;-78
2022/09/11 04:33:48;;;;;;;1.50;0.90;;;16.70;98.20;;;;;;4938529;28;20463;-78
2022/09/11 04:36:45;;;;;;;2.17;1.97;;;16.70;98.20;;;;;;4948328;28;20474;-78
2022/09/11 04:39:12;;;;;;;1.53;1.00;;;16.70;98.20;;;;;;4956858;28;20509;-77
2022/09/11 04:41:39;;;;;;;1.50;1.00;;;16.60;98.20;;;;;;4946753;28;20483;-79
2022/09/11 04:44:13;;;;;;;1.53;1.00;;;16.70;98.20;;;;;;4957622;29;20498;-79
2022/09/11 04:46:42;;;;;;;1.50;0.93;;;16.70;98.20;;;;;;4945851;28;20486;-78
2022/09/11 04:49:16;;;;;;;1.50;1.00;;;16.70;98.20;;;;;;4954736;28;21166;-78
2022/09/11 04:51:44;;;;;;;1.53;1.00;;;16.70;98.20;;;;;;4944212;28;20533;-78
2022/09/11 04:54:14;;;;;;;1.57;0.90;;;16.70;98.20;;;;;;4956104;29;20538;-78
2022/09/11 04:56:41;;;;;;;1.53;1.00;;;16.70;98.20;;;;;;4942918;28;20661;-78
2022/09/11 04:59:18;;;;;;;1.57;0.90;;;16.70;98.20;;;;;;4956838;28;20888;-78
2022/09/11 05:01:53;;;;;;;1.60;1.00;;;16.70;98.20;;;;;;4939161;28;20924;-78
2022/09/11 05:04:23;;;;;;;1.50;0.93;;;16.70;98.20;;;;;;4956020;29;20533;-78
2022/09/11 05:06:50;;;;;;;1.50;0.97;;;16.70;98.20;;;;;;4946989;28;20542;-79
2022/09/11 05:09:18;;;;;;;1.60;1.00;;;16.70;98.20;;;;;;4957944;28;20487;-79
2022/09/11 05:11:51;;;;;;;1.60;1.00;;;16.70;98.20;;;;;;4948040;28;20487;-78
2022/09/11 05:14:18;;;;;;;1.50;0.90;;;16.70;98.20;;;;;;4955631;28;20502;-79
2022/09/11 05:16:53;;;;;;;1.60;1.00;;;16.70;98.20;;;;;;4946141;28;20573;-78
2022/09/11 05:23:02;;;;;;;1.53;1.00;;;16.70;98.20;;;;;;4920482;28;20483;-77
2022/09/11 05:25:31;;;;;;;1.53;0.90;;;16.70;98.20;;;;;;4947046;28;20494;-78
2022/09/11 05:28:01;;;;;;;1.53;1.00;;;16.70;98.20;;;;;;4946452;28;20582;-79
2022/09/11 05:30:30;;;;;;;1.53;0.93;;;16.70;98.20;;;;;;4959191;28;20514;-78
2022/09/11 05:33:12;;;;;;;1.50;0.90;;;16.70;98.20;;;;;;4944403;28;20897;-77
2022/09/11 05:38:25;;;;;;;1.50;1.00;;;16.70;98.20;;;;;;4924108;29;20475;-79
2022/09/11 05:40:54;;;;;;;1.53;1.00;;;16.60;98.20;;;;;;4946505;28;20875;-76
2022/09/11 05:43:25;;;;;;;1.50;0.90;;;16.60;98.20;;;;;;4954082;29;20462;-78
2022/09/11 05:45:55;;;;;;;1.57;0.90;;;16.70;98.20;;;;;;4949405;28;20470;-78
2022/09/11 05:51:34;;;;;;;1.50;0.90;;;16.80;98.20;;;;;;4946582;28;20534;-76
2022/09/11 05:54:23;;;;;;;1.60;1.10;;;16.80;98.20;;;;;;4961943;29;20517;-78
2022/09/11 05:57:01;;;;;;;1.50;1.00;;;16.80;98.20;;;;;;4943979;28;20483;-77
2022/09/11 05:59:30;;;;;;;1.60;1.00;;;16.80;98.20;;;;;;4960106;28;20983;-79
2022/09/11 06:02:16;;;;;;;1.57;1.00;;;16.80;98.20;;;;;;4950135;28;20482;-78
2022/09/11 06:04:45;;;;;;;1.50;1.00;;;16.80;98.20;;;;;;4960216;28;20523;-78
2022/09/11 06:07:12;;;;;;;1.53;0.90;;;16.80;98.20;;;;;;4949042;28;20554;-78
2022/09/11 06:09:40;;;;;;;1.60;1.00;;;16.80;98.20;;;;;;4960809;28;20495;-77
2022/09/11 06:12:11;;;;;;;1.57;0.90;;;16.90;98.20;;;;;;4955041;28;20533;-78
2022/09/11 06:14:53;;;;;;;1.50;0.93;;;16.90;98.20;;;;;;4958729;29;21006;-78
2022/09/11 06:17:22;;;;;;;1.60;1.30;;;16.80;98.20;;;;;;4946121;28;20492;-77
2022/09/11 06:19:52;;;;;;;1.50;1.00;;;16.80;98.20;;;;;;4955114;28;20549;-77
2022/09/11 06:22:22;;;;;;;1.57;0.90;;;16.90;98.20;;;;;;4955303;28;20905;-76
2022/09/11 06:24:52;;;;;;;1.50;1.00;;;16.90;98.20;;;;;;4967185;28;20500;-77
2022/09/11 06:27:22;;;;;;;1.53;1.00;;;16.90;98.20;;;;;;4957739;28;20482;-77
2022/09/11 06:29:51;;;;;;;1.60;1.00;;;16.90;98.20;;;;;;4962428;28;20925;-76
2022/09/11 06:32:19;;;;;;;1.53;0.90;;;17.00;98.20;;;;;;4954923;28;20927;-77
2022/09/11 06:34:58;;;;;;;1.57;0.90;;;17.00;98.20;;;;;;4963568;28;20470;-78
2022/09/11 06:37:26;;;;;;;1.53;0.90;;;17.00;98.20;;;;;;4955910;28;20486;-77
2022/09/11 06:39:54;;;;;;;1.50;0.90;;;17.10;98.20;;;;;;4961337;29;20474;-77
2022/09/11 06:42:23;;;;;;;1.57;1.00;;;17.10;98.20;;;;;;4956278;28;20501;-76
2022/09/11 06:44:51;;;;;;;1.57;0.90;;;17.10;98.20;;;;;;4964805;28;20526;-78
2022/09/11 06:47:22;;;;;;;1.50;0.90;;;17.10;98.20;;;;;;4954136;28;21207;-76
2022/09/11 06:49:51;;;;;;;1.50;0.90;;;17.10;98.20;;;;;;4961667;28;20489;-75
2022/09/11 06:52:20;;;;;;;1.53;0.90;;;17.10;98.20;;;;;;4950307;28;20491;-75
2022/09/11 06:57:53;;;;;;;1.50;0.90;;;17.20;98.20;;;;;;4949055;28;20996;-76
2022/09/11 07:00:21;;;;;;;1.57;0.90;;;17.20;98.20;;;;;;4959210;29;20548;-78
2022/09/11 07:02:48;;;;;;;1.57;1.00;;;17.20;98.20;;;;;;4957804;28;20556;-77
2022/09/11 07:05:18;;;;;;;1.50;1.00;;;17.20;98.20;;;;;;4961037;28;20490;-77
2022/09/11 07:07:49;;;;;;;1.53;0.90;;;17.20;98.20;;;;;;4960234;28;20505;-76
2022/09/11 07:10:17;;;;;;;1.57;1.00;;;17.10;98.20;;;;;;4962029;28;20557;-77
2022/09/11 07:12:45;;;;;;;1.60;1.00;;;17.10;98.20;;;;;;4952356;28;20559;-77
2022/09/11 07:15:16;;;;;;;1.53;0.90;;;17.10;98.20;;;;;;4961692;29;20470;-77
2022/09/11 07:17:47;;;;;;;1.53;1.00;;;17.10;98.20;;;;;;4956566;28;20954;-77
2022/09/11 07:20:16;;;;;;;1.57;0.90;;;17.10;98.20;;;;;;4960578;28;20545;-77
2022/09/11 07:22:48;;;;;;;1.50;1.00;;;17.20;98.20;;;;;;4946975;28;20499;-77
2022/09/11 07:25:16;;;;;;;1.53;0.90;;;17.20;98.20;;;;;;4961202;28;20490;-77
2022/09/11 07:27:44;;;;;;;1.50;0.90;;;17.20;98.20;;;;;;4951276;28;20487;-76
2022/09/11 07:30:13;;;;;;;1.57;0.90;;;17.20;98.20;;;;;;4959502;29;20483;-76
2022/09/11 07:32:41;;;;;;;1.50;0.90;;;17.20;98.20;;;;;;4953675;28;20653;-77
2022/09/11 07:35:09;;;;;;;1.57;0.90;;;17.20;98.20;;;;;;4962146;29;20473;-76
2022/09/11 07:37:38;;;;;;;1.57;0.90;;;17.20;98.20;;;;;;4951486;28;21179;-77
2022/09/11 07:40:08;;;;;;;1.60;1.00;;;17.20;98.20;;;;;;4962822;29;20554;-77
2022/09/11 07:42:42;;;;;;;1.60;0.90;;;17.30;98.20;;;;;;4958523;28;20490;-77
2022/09/11 07:45:12;;;;;;;1.50;0.90;;;17.30;98.20;;;;;;4961168;28;20493;-78
2022/09/11 07:47:40;;;;;;;1.60;0.97;;;17.30;98.20;;;;;;4955127;28;20486;-77
2022/09/11 07:50:10;;;;;;;1.50;0.90;;;17.30;98.20;;;;;;4960656;28;20482;-77
2022/09/11 07:52:47;;;;;;;1.57;0.90;;;17.30;98.20;;;;;;4955007;28;20490;-76
2022/09/11 07:55:17;;;;;;;1.50;0.90;;;17.30;98.20;;;;;;4958242;29;20541;-77
2022/09/11 07:57:56;;;;;;;2.00;1.63;;;17.30;98.20;;;;;;4948724;28;20544;-76
2022/09/11 08:00:23;;;;;;;1.60;1.00;;;17.20;98.20;;;;;;4958710;28;20482;-76
2022/09/11 08:02:55;;;;;;;1.57;1.00;;;17.30;98.20;;;;;;4948595;28;20494;-77
2022/09/11 08:05:22;;;;;;;1.50;1.00;;;17.30;98.20;;;;;;4957243;28;20526;-77
2022/09/11 08:07:51;;;;;;;1.60;1.00;;;17.30;98.20;;;;;;4951142;28;21178;-77
2022/09/11 08:10:20;;;;;;;1.50;0.90;;;17.30;98.20;;;;;;4958791;28;20491;-77
2022/09/11 08:12:51;;;;;;;1.50;0.90;;;17.30;98.20;;;;;;4947435;28;20518;-76
2022/09/11 08:15:23;;;;;;;1.50;0.90;;;17.30;98.20;;;;;;4959851;28;20482;-77
2022/09/11 08:17:51;;;;;;;1.53;1.00;;;17.40;98.20;;;;;;4954531;28;20487;-77
2022/09/11 08:20:21;;;;;;;1.57;0.90;;;17.40;98.20;;;;;;4957657;28;20538;-77
2022/09/11 08:22:51;;;;;;;1.53;0.90;;;17.40;98.20;;;;;;4953639;28;20774;-77
2022/09/11 08:25:29;;;;;;;1.50;0.90;;;17.40;98.20;;;;;;4957990;28;20502;-77
2022/09/11 08:27:57;;;;;;;1.50;0.90;;;17.40;98.20;;;;;;4947221;28;20502;-77
2022/09/11 08:30:24;;;;;;;1.53;1.00;;;17.40;98.20;;;;;;4957592;28;20486;-77
2022/09/11 08:32:52;;;;;;;1.57;0.90;;;17.50;98.20;;;;;;4951498;28;20494;-77
2022/09/11 08:35:24;;;;;;;1.50;0.90;;;17.60;98.20;;;;;;4957521;28;20459;-78
2022/09/11 08:37:56;;;;;;;1.60;1.00;;;17.60;98.20;;;;;;4947217;28;20514;-76
2022/09/11 08:40:40;;;;;;;1.60;0.90;;;17.70;98.20;;;;;;4956891;28;20510;-77
2022/09/11 08:43:23;;;;;;;1.57;0.90;;;17.80;98.20;;;;;;4948645;28;20482;-78
2022/09/11 08:48:47;;;;;;;1.57;0.90;;;17.90;98.20;;;;;;4956506;28;20482;-77
2022/09/11 08:51:18;;;;;;;1.50;0.90;;;18.00;98.20;;;;;;4941060;28;20477;-76
2022/09/11 08:53:53;;;;;;;1.53;0.90;;;18.10;98.20;;;;;;4961934;28;20471;-78
2022/09/11 08:56:37;;;;;;;1.60;1.00;;;18.20;98.20;;;;;;4948231;28;20825;-77
2022/09/11 08:59:22;;;;;;;1.53;0.90;;;18.30;98.20;;;;;;4955723;28;20550;-77
2022/09/11 09:01:58;;;;;;;1.57;1.00;;;18.30;98.20;;;;;;4945991;28;20486;-76
2022/09/11 09:04:49;;;;;;;1.50;0.90;;;18.40;98.20;;;;;;4957529;28;20859;-78
2022/09/11 09:07:31;;;;;;;1.57;0.90;;;18.40;98.20;;;;;;4949641;28;20499;-76
2022/09/11 09:10:12;;;;;;;1.53;0.90;;;18.40;98.20;;;;;;4956598;28;20641;-77
2022/09/11 09:12:49;;;;;;;1.60;0.90;;;18.50;98.20;;;;;;4946714;28;20485;-76
2022/09/11 09:15:34;;;;;;;1.50;0.90;;;18.50;98.20;;;;;;4955722;28;20931;-77
2022/09/11 09:18:08;;;;;;;1.53;0.90;;;18.60;98.20;;;;;;4945615;28;20486;-77
2022/09/11 09:20:41;;;;;;;1.53;0.90;;;18.60;98.20;;;;;;4957893;28;20491;-78
2022/09/11 09:23:17;;;;;;;1.53;0.90;;;18.50;98.20;;;;;;4952038;28;20887;-77
2022/09/11 09:25:47;;;;;;;1.53;0.90;;;18.50;98.20;;;;;;4955161;28;20478;-77
2022/09/11 09:28:32;;;;;;;1.53;0.90;;;18.50;98.20;;;;;;4934229;29;20475;-77
2022/09/11 09:31:06;;;;;;;1.53;0.93;;;18.50;98.20;;;;;;4947211;28;20497;-77
2022/09/11 09:33:36;;;;;;;1.53;1.00;;;18.40;98.20;;;;;;4959728;28;20574;-77
2022/09/11 09:36:16;;;;;;;1.53;0.90;;;18.50;98.20;;;;;;4945727;28;20467;-76
2022/09/11 09:38:45;;;;;;;1.50;0.90;;;18.40;98.20;;;;;;4957429;28;20864;-78
2022/09/11 09:41:43;;;;;;;1.60;1.20;;;18.40;98.20;;;;;;4946417;28;20498;-77
2022/09/11 09:44:21;;;;;;;1.50;0.90;;;18.50;98.20;;;;;;4954407;28;20995;-77
2022/09/11 09:46:54;;;;;;;2.33;1.40;;;18.50;98.20;;;;;;4945626;28;20550;-77
2022/09/11 09:49:25;;;;;;;1.57;0.90;;;18.50;98.20;;;;;;4957138;28;20498;-77
2022/09/11 09:52:01;;;;;;;1.60;0.93;;;18.50;98.20;;;;;;4946589;28;20590;-76
2022/09/11 09:54:37;;;;;;;1.50;0.90;;;18.50;98.20;;;;;;4954728;28;20541;-77
2022/09/11 09:57:10;;;;;;;1.60;0.93;;;18.50;98.20;;;;;;4945417;28;20493;-76
2022/09/11 09:59:43;;;;;;;1.60;1.00;;;18.60;98.20;;;;;;4957122;28;20487;-76
2022/09/11 10:02:12;;;;;;;1.80;1.43;;;18.60;98.20;;;;;;4940707;28;20490;-76
2022/09/11 10:04:40;;;;;;;1.60;1.00;;;18.70;98.20;;;;;;4954270;28;20787;-76
2022/09/11 10:10:23;;;;;;;1.53;0.90;;;18.70;98.20;;;;;;4950126;28;21242;-77
2022/09/11 10:12:51;;;;;;;1.53;0.90;;;18.80;98.20;;;;;;4948214;28;20477;-76
2022/09/11 10:15:22;;;;;;;1.57;0.90;;;18.90;98.20;;;;;;4953136;28;20467;-76
2022/09/11 10:17:52;;;;;;;1.53;1.00;;;19.00;98.20;;;;;;4945270;28;20490;-76
2022/09/11 10:20:28;;;;;;;1.53;0.90;;;19.10;98.20;;;;;;4954044;28;21102;-76
2022/09/11 10:23:28;;;;;;;1.57;0.90;;;19.30;98.20;;;;;;4942717;28;20573;-75
2022/09/11 10:25:56;;;;;;;1.53;0.90;;;19.40;98.20;;;;;;4940054;28;20487;-76
2022/09/11 10:28:31;;;;;;;1.57;0.90;;;19.50;98.20;;;;;;4954397;28;20478;-77
2022/09/11 10:31:03;;;;;;;1.53;0.90;;;19.70;98.20;;;;;;4941679;28;21328;-76
2022/09/11 10:33:34;;;;;;;1.50;0.90;;;19.80;98.20;;;;;;4955433;28;20467;-76
2022/09/11 10:36:14;;;;;;;1.53;0.90;;;20.00;98.20;;;;;;4948862;28;20474;-77
2022/09/11 10:38:48;;;;;;;1.53;0.90;;;20.20;98.20;;;;;;4959780;28;20465;-75
2022/09/11 10:41:22;;;;;;;1.53;0.90;;;20.40;98.20;;;;;;4950275;28;20782;-76
2022/09/11 10:43:57;;;;;;;1.53;0.90;;;20.50;98.20;;;;;;4961234;28;20478;-74
2022/09/11 10:46:30;;;;;;;1.53;0.90;;;20.70;98.20;;;;;;4943513;28;20536;-76
2022/09/11 10:49:04;;;;;;;1.60;0.90;;;20.80;98.20;;;;;;4954509;28;20487;-76
2022/09/11 10:51:33;;;;;;;1.53;0.90;;;21.00;98.20;;;;;;4944157;28;20525;-75
2022/09/11 10:54:22;;;;;;;1.50;0.90;;;21.10;98.20;;;;;;4951867;29;20469;-76
2022/09/11 10:57:12;;;;;;;1.60;0.90;;;21.10;98.20;;;;;;4947507;28;20490;-75
2022/09/11 10:59:45;;;;;;;1.53;0.90;;;21.30;98.20;;;;;;4953493;28;20482;-77
2022/09/11 11:02:24;;;;;;;1.53;0.90;;;21.40;98.20;;;;;;4948772;28;20498;-77
2022/09/11 11:04:52;;;;;;;1.60;0.90;;;21.40;98.20;;;;;;4955373;28;20458;-77
2022/09/11 11:07:53;;;;;;;1.50;0.90;;;21.50;98.20;;;;;;4943212;28;20487;-77
2022/09/11 11:10:33;;;;;;;1.57;0.90;;;21.60;98.20;;;;;;4951766;28;20489;-77
2022/09/11 11:13:18;;;;;;;1.50;0.90;;;21.60;98.20;;;;;;4949596;28;20474;-78
2022/09/11 11:16:04;;;;;;;1.57;0.90;;;21.80;98.20;;;;;;4957679;28;20974;-76
2022/09/11 11:22:09;;;;;;;1.50;0.90;;;22.40;98.20;;;;;;4948335;28;20482;-78
2022/09/11 11:24:51;;;;;;;1.53;0.90;;;22.60;98.20;;;;;;4957096;28;20567;-77
2022/09/11 11:27:43;;;;;;;1.50;0.90;;;22.70;98.20;;;;;;4943835;28;20494;-77
2022/09/11 11:30:16;;;;;;;1.53;0.90;;;22.70;98.20;;;;;;4957796;28;20483;-77
2022/09/11 11:33:44;;;;;;;1.60;0.90;;;22.90;98.20;;;;;;4944250;28;21131;-78
2022/09/11 11:36:30;;;;;;;1.50;0.90;;;23.20;98.20;;;;;;4942670;28;20481;-77
2022/09/11 11:39:02;;;;;;;1.53;0.90;;;23.60;97.00;;;;;;4959602;28;20481;-77
2022/09/11 11:44:35;;;;;;;1.53;0.90;;;24.10;95.90;;;;;;4952302;28;20459;-77
2022/09/11 11:47:10;;;;;;;1.57;0.90;;;24.50;95.80;;;;;;4955875;28;20584;-77
2022/09/11 11:49:58;;;;;;;1.57;0.90;;;24.90;94.80;;;;;;4954667;28;21003;-77
2022/09/11 11:52:48;;;;;;;1.53;0.90;;;25.20;93.60;;;;;;4944779;28;20979;-77
2022/09/11 11:55:29;;;;;;;1.50;0.80;;;25.60;93.30;;;;;;4954675;28;21037;-77
2022/09/11 11:58:06;;;;;;;1.50;0.80;;;25.70;92.00;;;;;;4943119;28;20483;-78
2022/09/11 12:00:43;;;;;;;1.50;0.90;;;25.80;92.10;;;;;;4954655;28;21011;-77
2022/09/11 12:03:20;;;;;;;1.70;1.00;;;25.80;91.00;;;;;;4948237;28;20485;-77
2022/09/11 12:05:49;;;;;;;1.57;0.83;;;25.90;91.00;;;;;;4955810;28;20489;-75
2022/09/11 12:08:18;;;;;;;1.57;0.80;;;25.90;90.40;;;;;;4958983;28;20514;-75
2022/09/11 12:10:58;;;;;;;1.50;0.90;;;25.80;91.30;;;;;;4954296;28;20502;-77
2022/09/11 12:13:32;;;;;;;1.53;0.80;;;25.80;91.00;;;;;;4933919;29;20485;-77
2022/09/11 12:16:13;;;;;;;1.57;0.90;;;25.80;91.50;;;;;;4945088;28;20502;-76
2022/09/11 12:19:04;;;;;;;1.60;1.30;;;25.80;91.50;;;;;;4957817;28;20474;-76
2022/09/11 12:22:03;;;;;;;1.50;0.80;;;26.00;90.50;;;;;;4943156;28;20486;-76
2022/09/11 12:24:57;;;;;;;1.50;0.87;;;26.10;89.40;;;;;;4954302;28;20473;-75
2022/09/11 12:27:52;;;;;;;1.57;0.90;;;26.10;87.60;;;;;;4947466;28;20601;-76
2022/09/11 12:30:26;;;;;;;1.50;1.00;;;26.10;89.00;;;;;;4951528;28;20529;-77
2022/09/11 12:32:55;;;;;;;1.60;1.00;;;26.10;90.10;;;;;;4945746;28;21027;-76
2022/09/11 12:35:46;;;;;;;1.60;0.90;;;26.20;87.20;;;;;;4954083;29;20541;-76
2022/09/11 12:38:23;;;;;;;2.07;1.07;;;26.30;86.80;;;;;;4932878;29;20474;-77
2022/09/11 12:40:56;;;;;;;1.50;0.80;;;26.50;86.40;;;;;;4943685;28;20501;-75
2022/09/11 12:43:46;;;;;;;1.50;0.80;;;26.70;87.40;;;;;;4954759;28;20578;-77
2022/09/11 12:46:52;;;;;;;1.50;0.80;;;26.80;86.40;;;;;;4944441;28;20547;-76
2022/09/11 12:49:22;;;;;;;1.60;0.90;;;26.70;87.60;;;;;;4954683;28;20524;-76
2022/09/11 12:51:56;;;;;;;1.50;0.80;;;26.70;87.60;;;;;;4941511;28;21036;-76
2022/09/11 12:54:28;;;;;;;1.50;0.80;;;26.80;84.50;;;;;;4949220;28;20473;-76
2022/09/11 12:57:11;;;;;;;3.03;0.90;;;26.90;85.70;;;;;;4938564;28;20482;-75
2022/09/11 12:59:42;;;;;;;1.50;0.90;;;26.80;85.20;;;;;;4952851;28;21051;-75
2022/09/11 13:02:26;;;;;;;1.53;0.90;;;26.90;85.80;;;;;;4944147;28;20474;-75
2022/09/11 13:04:55;;;;;;;1.50;0.80;;;27.00;84.80;;;;;;4951684;28;20530;-76
2022/09/11 13:07:31;;;;;;;1.50;0.80;;;27.10;84.00;;;;;;4947050;28;20880;-75
2022/09/11 13:10:06;;;;;;;1.50;0.80;;;27.10;83.30;;;;;;4952888;28;20497;-75
2022/09/11 13:12:54;;;;;;;1.50;0.90;;;27.10;81.50;;;;;;4940489;28;20534;-76
2022/09/11 13:15:43;;;;;;;1.50;0.80;;;27.10;84.40;;;;;;4951382;28;21018;-75
2022/09/11 13:18:31;;;;;;;1.50;0.90;;;26.90;84.80;;;;;;4946483;28;20491;-75
2022/09/11 13:21:02;;;;;;;1.50;0.83;;;27.00;84.70;;;;;;4941556;28;20466;-76
2022/09/11 13:23:31;;;;;;;2.13;1.67;;;27.00;84.30;;;;;;4951567;28;20477;-76
2022/09/11 13:26:01;;;;;;;1.50;0.80;;;27.10;83.60;;;;;;4942799;28;20562;-75
2022/09/11 13:28:34;;;;;;;1.50;0.80;;;27.10;84.80;;;;;;4952618;28;20611;-76
2022/09/11 13:31:06;;;;;;;1.47;0.80;;;27.10;85.10;;;;;;4942545;28;20640;-76
2022/09/11 13:33:39;;;;;;;1.50;0.80;;;27.10;82.40;;;;;;4952106;28;20576;-75
2022/09/11 13:36:14;;;;;;;1.50;0.80;;;27.10;84.10;;;;;;4940335;28;20647;-76
2022/09/11 13:38:44;;;;;;;1.50;0.80;;;27.10;82.10;;;;;;4956859;28;20470;-77
2022/09/11 13:41:17;;;;;;;1.50;0.80;;;27.10;81.80;;;;;;4940179;29;20482;-76
2022/09/11 13:43:51;;;;;;;1.47;0.80;;;27.00;81.70;;;;;;4949915;28;20481;-76
2022/09/11 13:46:23;;;;;;;1.50;0.80;;;26.80;81.70;;;;;;4944033;28;20535;-76
2022/09/11 13:48:55;;;;;;;1.47;0.80;;;26.80;80.60;;;;;;4951078;28;20489;-76
2022/09/11 13:51:28;;;;;;;1.50;0.80;;;26.70;81.50;;;;;;4937473;28;20874;-74
2022/09/11 13:54:12;;;;;;;1.50;0.80;;;26.60;81.60;;;;;;4940885;28;20852;-74
2022/09/11 13:56:47;;;;;;;1.50;0.90;;;26.60;80.20;;;;;;4941637;28;20561;-75
2022/09/11 13:59:47;;;;;;;1.50;0.90;;;26.60;82.60;;;;;;4950370;28;21097;-74
2022/09/11 14:02:46;;;;;;;1.50;0.80;;;26.70;81.40;;;;;;4901607;29;20987;-77
2022/09/11 14:05:19;;;;;;;1.50;0.80;;;26.60;82.20;;;;;;4949930;28;20600;-76
2022/09/11 14:07:58;;;;;;;1.47;0.80;;;26.70;80.40;;;;;;4944203;28;20545;-76
2022/09/11 14:10:32;;;;;;;1.40;0.80;;;26.60;80.60;;;;;;4952315;28;20486;-76
2022/09/11 14:13:14;;;;;;;1.50;0.80;;;26.50;80.20;;;;;;4946496;28;20481;-75
2022/09/11 14:15:50;;;;;;;1.50;0.90;;;26.50;81.40;;;;;;4953253;28;20887;-75
2022/09/11 14:18:32;;;;;;;1.50;0.83;;;26.50;82.10;;;;;;4935515;28;20545;-76
2022/09/11 14:21:04;;;;;;;1.40;0.80;;;26.60;79.50;;;;;;4944879;28;20466;-75
2022/09/11 14:23:41;;;;;;;1.50;0.90;;;26.70;82.20;;;;;;4961328;28;20462;-76
2022/09/11 14:26:14;;;;;;;1.50;0.80;;;26.80;81.90;;;;;;4946011;28;20772;-76
2022/09/11 14:29:01;;;;;;;1.50;0.90;;;26.70;81.60;;;;;;4956456;28;20494;-75
2022/09/11 14:31:34;;;;;;;1.50;0.90;;;26.90;82.40;;;;;;4945394;28;20545;-76
2022/09/11 14:34:17;;;;;;;1.50;0.80;;;26.80;83.30;;;;;;4955068;28;20480;-75
2022/09/11 14:36:48;;;;;;;1.47;0.80;;;26.80;80.40;;;;;;4944041;28;20542;-77
2022/09/11 14:39:24;;;;;;;1.47;0.80;;;26.90;81.70;;;;;;4956180;28;20482;-75
2022/09/11 14:41:54;;;;;;;1.43;0.80;;;26.80;80.00;;;;;;4943898;28;20490;-75
2022/09/11 14:44:29;;;;;;;1.40;0.80;;;26.80;79.00;;;;;;4952729;28;20463;-75
2022/09/11 14:46:58;;;;;;;1.47;0.80;;;26.70;79.20;;;;;;4944369;28;21233;-76